Glenburn, Maine
Current Conditions -  °F | °C
As of 9:14 AM on Saturday 20 Dec 2014 (Local Time) from KBGR Reporting Station
Broken Clouds Broken Clouds  
Wind Chill: 11°   Ceiling: 1300
Heat Index: 20°   Visibility: 10mi
Dew Point: 15°   Wind: 7mph
Humidity: 81%   Direction: 40°NE
Pressure: 30.35"   Gusts: NA
Location:  44.8521°N, 68.8311°W
Report Text: KBGR 201414Z 04006KT 10SM BKN013 BKN150 M07/M09 A3035 RMK AO2 T10671094
Loading
Personal Weather Stations






























Interactive Weather Map New forecast layout! Learn more

10-Day Weather Forecast

Advertisements
Track Severe Weather on mobile